sensor_id;sensor_type;location;lat;lon;timestamp;P1;durP1;ratioP1;P2;durP2;ratioP2
27979;SDS011;15315;50.836;4.430;2023-02-11T00:07:31;21.30;;;8.38;;
27979;SDS011;15315;50.836;4.430;2023-02-11T00:17:32;19.88;;;8.00;;
27979;SDS011;15315;50.836;4.430;2023-02-11T00:27:33;20.50;;;8.02;;
27979;SDS011;15315;50.836;4.430;2023-02-11T00:37:35;18.88;;;7.78;;
27979;SDS011;15315;50.836;4.430;2023-02-11T00:47:36;24.57;;;8.43;;
27979;SDS011;15315;50.836;4.430;2023-02-11T00:57:36;19.83;;;8.57;;
27979;SDS011;15315;50.836;4.430;2023-02-11T01:07:36;26.55;;;8.93;;
27979;SDS011;15315;50.836;4.430;2023-02-11T01:17:37;28.50;;;8.35;;
27979;SDS011;15315;50.836;4.430;2023-02-11T01:27:37;29.13;;;8.95;;
27979;SDS011;15315;50.836;4.430;2023-02-11T01:37:38;30.08;;;9.05;;
27979;SDS011;15315;50.836;4.430;2023-02-11T01:47:38;27.77;;;8.35;;
27979;SDS011;15315;50.836;4.430;2023-02-11T01:57:39;19.02;;;8.27;;
27979;SDS011;15315;50.836;4.430;2023-02-11T02:07:48;30.75;;;8.07;;
27979;SDS011;15315;50.836;4.430;2023-02-11T02:17:57;18.02;;;8.40;;
27979;SDS011;15315;50.836;4.430;2023-02-11T02:48:32;22.20;;;6.97;;
27979;SDS011;15315;50.836;4.430;2023-02-11T03:08:53;28.65;;;7.70;;
27979;SDS011;15315;50.836;4.430;2023-02-11T03:19:04;24.33;;;8.15;;
27979;SDS011;15315;50.836;4.430;2023-02-11T03:39:56;26.17;;;8.27;;
27979;SDS011;15315;50.836;4.430;2023-02-11T03:50:02;22.42;;;8.40;;
27979;SDS011;15315;50.836;4.430;2023-02-11T04:00:05;24.85;;;9.25;;
27979;SDS011;15315;50.836;4.430;2023-02-11T04:10:06;27.85;;;9.32;;
27979;SDS011;15315;50.836;4.430;2023-02-11T04:20:08;22.60;;;8.57;;
27979;SDS011;15315;50.836;4.430;2023-02-11T04:30:09;30.95;;;9.63;;
27979;SDS011;15315;50.836;4.430;2023-02-11T04:40:10;22.50;;;10.40;;
27979;SDS011;15315;50.836;4.430;2023-02-11T04:50:11;30.92;;;11.20;;
27979;SDS011;15315;50.836;4.430;2023-02-11T05:00:11;22.25;;;10.85;;
27979;SDS011;15315;50.836;4.430;2023-02-11T05:10:12;30.63;;;12.05;;
27979;SDS011;15315;50.836;4.430;2023-02-11T05:20:13;28.58;;;12.48;;
27979;SDS011;15315;50.836;4.430;2023-02-11T05:30:13;37.75;;;12.95;;
27979;SDS011;15315;50.836;4.430;2023-02-11T05:40:14;37.75;;;14.25;;
27979;SDS011;15315;50.836;4.430;2023-02-11T05:50:14;35.45;;;15.05;;
27979;SDS011;15315;50.836;4.430;2023-02-11T06:00:15;35.38;;;15.20;;
27979;SDS011;15315;50.836;4.430;2023-02-11T06:10:16;42.28;;;15.77;;
27979;SDS011;15315;50.836;4.430;2023-02-11T06:20:16;34.88;;;16.65;;
27979;SDS011;15315;50.836;4.430;2023-02-11T06:30:17;43.45;;;17.52;;
27979;SDS011;15315;50.836;4.430;2023-02-11T06:40:17;49.90;;;19.60;;
27979;SDS011;15315;50.836;4.430;2023-02-11T06:50:18;52.75;;;19.48;;
27979;SDS011;15315;50.836;4.430;2023-02-11T07:00:19;43.75;;;20.05;;
27979;SDS011;15315;50.836;4.430;2023-02-11T07:10:19;45.88;;;21.23;;
27979;SDS011;15315;50.836;4.430;2023-02-11T07:20:19;52.70;;;22.90;;
27979;SDS011;15315;50.836;4.430;2023-02-11T07:30:20;47.28;;;20.95;;
27979;SDS011;15315;50.836;4.430;2023-02-11T07:40:20;45.65;;;20.65;;
27979;SDS011;15315;50.836;4.430;2023-02-11T07:50:21;43.80;;;21.42;;
27979;SDS011;15315;50.836;4.430;2023-02-11T08:00:21;48.33;;;22.08;;
27979;SDS011;15315;50.836;4.430;2023-02-11T08:10:21;54.60;;;22.45;;
27979;SDS011;15315;50.836;4.430;2023-02-11T08:20:22;60.10;;;25.45;;
27979;SDS011;15315;50.836;4.430;2023-02-11T08:30:22;59.03;;;22.83;;
27979;SDS011;15315;50.836;4.430;2023-02-11T08:40:24;53.67;;;24.20;;
27979;SDS011;15315;50.836;4.430;2023-02-11T08:50:26;54.88;;;24.35;;
27979;SDS011;15315;50.836;4.430;2023-02-11T09:00:34;61.40;;;25.00;;
27979;SDS011;15315;50.836;4.430;2023-02-11T09:10:35;61.97;;;25.93;;
27979;SDS011;15315;50.836;4.430;2023-02-11T09:20:35;67.97;;;26.85;;
27979;SDS011;15315;50.836;4.430;2023-02-11T09:30:36;71.00;;;29.08;;
27979;SDS011;15315;50.836;4.430;2023-02-11T09:40:41;63.65;;;27.88;;
27979;SDS011;15315;50.836;4.430;2023-02-11T09:50:44;65.13;;;28.17;;
27979;SDS011;15315;50.836;4.430;2023-02-11T10:01:06;69.90;;;27.17;;
27979;SDS011;15315;50.836;4.430;2023-02-11T10:12:02;68.30;;;28.48;;
27979;SDS011;15315;50.836;4.430;2023-02-11T10:43:15;65.70;;;29.23;;
27979;SDS011;15315;50.836;4.430;2023-02-11T10:53:19;64.88;;;29.02;;
27979;SDS011;15315;50.836;4.430;2023-02-11T11:03:21;70.05;;;31.13;;
27979;SDS011;15315;50.836;4.430;2023-02-11T11:13:24;69.45;;;30.90;;
27979;SDS011;15315;50.836;4.430;2023-02-11T11:23:25;66.55;;;30.35;;
27979;SDS011;15315;50.836;4.430;2023-02-11T11:33:30;69.78;;;32.13;;
27979;SDS011;15315;50.836;4.430;2023-02-11T11:43:33;68.57;;;31.67;;
27979;SDS011;15315;50.836;4.430;2023-02-11T11:53:38;65.90;;;32.88;;
27979;SDS011;15315;50.836;4.430;2023-02-11T12:14:36;75.18;;;34.40;;
27979;SDS011;15315;50.836;4.430;2023-02-11T12:45:40;66.45;;;31.70;;
27979;SDS011;15315;50.836;4.430;2023-02-11T12:55:45;67.20;;;32.95;;
27979;SDS011;15315;50.836;4.430;2023-02-11T13:05:50;75.03;;;34.30;;
27979;SDS011;15315;50.836;4.430;2023-02-11T13:26:24;74.05;;;35.30;;
27979;SDS011;15315;50.836;4.430;2023-02-11T13:36:31;70.77;;;34.50;;
27979;SDS011;15315;50.836;4.430;2023-02-11T14:17:41;70.22;;;34.95;;
27979;SDS011;15315;50.836;4.430;2023-02-11T14:27:43;73.72;;;36.80;;
27979;SDS011;15315;50.836;4.430;2023-02-11T14:38:05;72.57;;;37.50;;
27979;SDS011;15315;50.836;4.430;2023-02-11T14:48:17;71.90;;;34.47;;
27979;SDS011;15315;50.836;4.430;2023-02-11T15:08:21;74.72;;;36.88;;
27979;SDS011;15315;50.836;4.430;2023-02-11T15:18:22;74.88;;;38.78;;
27979;SDS011;15315;50.836;4.430;2023-02-11T15:28:28;69.68;;;38.10;;
27979;SDS011;15315;50.836;4.430;2023-02-11T15:38:31;70.28;;;39.15;;
27979;SDS011;15315;50.836;4.430;2023-02-11T15:48:50;77.55;;;38.88;;
27979;SDS011;15315;50.836;4.430;2023-02-11T15:58:52;75.63;;;40.35;;
27979;SDS011;15315;50.836;4.430;2023-02-11T16:09:38;72.40;;;39.08;;
27979;SDS011;15315;50.836;4.430;2023-02-11T16:19:25;77.60;;;39.17;;
27979;SDS011;15315;50.836;4.430;2023-02-11T16:29:27;72.88;;;40.08;;
27979;SDS011;15315;50.836;4.430;2023-02-11T16:39:29;73.35;;;40.05;;
27979;SDS011;15315;50.836;4.430;2023-02-11T16:49:39;76.00;;;41.33;;
27979;SDS011;15315;50.836;4.430;2023-02-11T16:59:41;72.32;;;41.75;;
27979;SDS011;15315;50.836;4.430;2023-02-11T17:09:42;74.20;;;41.88;;
27979;SDS011;15315;50.836;4.430;2023-02-11T17:19:45;77.13;;;43.03;;
27979;SDS011;15315;50.836;4.430;2023-02-11T17:29:46;70.72;;;42.25;;
27979;SDS011;15315;50.836;4.430;2023-02-11T17:39:47;73.35;;;43.30;;
27979;SDS011;15315;50.836;4.430;2023-02-11T17:49:48;72.13;;;42.45;;
27979;SDS011;15315;50.836;4.430;2023-02-11T17:59:48;70.97;;;42.00;;
27979;SDS011;15315;50.836;4.430;2023-02-11T18:09:49;70.28;;;41.80;;
27979;SDS011;15315;50.836;4.430;2023-02-11T18:19:50;70.00;;;41.97;;
27979;SDS011;15315;50.836;4.430;2023-02-11T18:29:53;76.68;;;42.10;;
27979;SDS011;15315;50.836;4.430;2023-02-11T18:39:54;75.72;;;41.33;;
27979;SDS011;15315;50.836;4.430;2023-02-11T18:49:54;76.28;;;44.40;;
27979;SDS011;15315;50.836;4.430;2023-02-11T18:59:55;79.57;;;43.33;;
27979;SDS011;15315;50.836;4.430;2023-02-11T19:09:55;79.60;;;42.13;;
27979;SDS011;15315;50.836;4.430;2023-02-11T19:19:55;78.05;;;42.90;;
27979;SDS011;15315;50.836;4.430;2023-02-11T19:29:56;71.20;;;41.60;;
27979;SDS011;15315;50.836;4.430;2023-02-11T19:39:56;67.50;;;39.47;;
27979;SDS011;15315;50.836;4.430;2023-02-11T19:49:57;76.55;;;42.53;;
27979;SDS011;15315;50.836;4.430;2023-02-11T19:59:57;74.07;;;41.92;;
27979;SDS011;15315;50.836;4.430;2023-02-11T20:09:58;81.10;;;42.20;;
27979;SDS011;15315;50.836;4.430;2023-02-11T20:19:59;80.47;;;41.15;;
27979;SDS011;15315;50.836;4.430;2023-02-11T20:29:59;72.35;;;40.92;;
27979;SDS011;15315;50.836;4.430;2023-02-11T20:39:59;74.18;;;42.25;;
27979;SDS011;15315;50.836;4.430;2023-02-11T20:50:00;70.95;;;41.50;;
27979;SDS011;15315;50.836;4.430;2023-02-11T21:00:00;72.97;;;40.13;;
27979;SDS011;15315;50.836;4.430;2023-02-11T21:10:02;70.70;;;39.55;;
27979;SDS011;15315;50.836;4.430;2023-02-11T21:20:03;64.93;;;36.90;;
27979;SDS011;15315;50.836;4.430;2023-02-11T21:30:04;67.40;;;39.22;;
27979;SDS011;15315;50.836;4.430;2023-02-11T21:40:06;64.85;;;37.88;;
27979;SDS011;15315;50.836;4.430;2023-02-11T21:50:07;66.97;;;37.75;;
27979;SDS011;15315;50.836;4.430;2023-02-11T22:00:08;58.63;;;34.15;;
27979;SDS011;15315;50.836;4.430;2023-02-11T22:10:09;62.28;;;34.08;;
27979;SDS011;15315;50.836;4.430;2023-02-11T22:20:09;53.10;;;31.60;;
27979;SDS011;15315;50.836;4.430;2023-02-11T22:30:10;54.63;;;31.75;;
27979;SDS011;15315;50.836;4.430;2023-02-11T22:40:11;46.72;;;28.52;;
27979;SDS011;15315;50.836;4.430;2023-02-11T22:50:15;43.30;;;24.97;;
27979;SDS011;15315;50.836;4.430;2023-02-11T23:00:16;37.45;;;21.80;;
27979;SDS011;15315;50.836;4.430;2023-02-11T23:10:20;36.70;;;23.00;;
27979;SDS011;15315;50.836;4.430;2023-02-11T23:20:20;34.67;;;21.75;;
27979;SDS011;15315;50.836;4.430;2023-02-11T23:30:21;35.53;;;20.20;;
27979;SDS011;15315;50.836;4.430;2023-02-11T23:40:21;29.83;;;18.45;;
27979;SDS011;15315;50.836;4.430;2023-02-11T23:50:22;22.67;;;16.08;;
